createdAt,value
2022-10-04T00:00:58.080Z,99315.14
2022-10-04T00:02:02.284Z,99318.63
2022-10-04T00:03:06.574Z,99312.47
2022-10-04T00:04:10.853Z,99313.68
2022-10-04T00:05:14.978Z,99313.39
2022-10-04T00:06:19.063Z,99308.63
2022-10-04T00:07:23.169Z,99319.15
2022-10-04T00:08:27.273Z,99310.59
2022-10-04T00:09:31.388Z,99321
2022-10-04T00:10:35.472Z,99310.26
2022-10-04T00:11:39.897Z,99313.94
2022-10-04T00:12:44.534Z,99319.74
2022-10-04T00:13:48.616Z,99313.04
2022-10-04T00:14:52.741Z,99313.58
2022-10-04T00:15:56.927Z,99313.06
2022-10-04T00:17:01.079Z,99307.3
2022-10-04T00:18:05.170Z,99302.76
2022-10-04T00:19:09.253Z,99304.32
2022-10-04T00:20:13.980Z,99307.3
2022-10-04T00:21:18.132Z,99303.98
2022-10-04T00:22:22.260Z,99304.69
2022-10-04T00:23:26.362Z,99303.06
2022-10-04T00:24:30.487Z,99307.48
2022-10-04T00:25:34.553Z,99305.72
2022-10-04T00:26:38.740Z,99302.94
2022-10-04T00:27:42.861Z,99303.98
2022-10-04T00:28:46.949Z,99308.41
2022-10-04T00:29:51.062Z,99306.66
2022-10-04T00:30:55.284Z,99309.33
2022-10-04T00:31:59.494Z,99304.97
2022-10-04T00:33:03.617Z,99311.27
2022-10-04T00:34:07.694Z,99301.38
2022-10-04T00:35:11.829Z,99309.92
2022-10-04T00:36:15.925Z,99305.72
2022-10-04T00:37:20.030Z,99308.59
2022-10-04T00:38:24.149Z,99307.65
2022-10-04T00:39:28.272Z,99302.12
2022-10-04T00:40:32.395Z,99303.3
2022-10-04T00:41:36.480Z,99307.36
2022-10-04T00:42:40.586Z,99306.38
2022-10-04T00:43:44.698Z,99312.81
2022-10-04T00:44:48.786Z,99303.3
2022-10-04T00:45:53.053Z,99302.12
2022-10-04T00:46:57.257Z,99307.87
2022-10-04T00:48:01.344Z,99299.29
2022-10-04T00:49:05.475Z,99300.67
2022-10-04T00:50:09.567Z,99299.44
2022-10-04T00:51:13.664Z,99296.36
2022-10-04T00:52:17.751Z,99296.84
2022-10-04T00:53:21.845Z,99291.04
2022-10-04T00:54:25.958Z,99296.95
2022-10-04T00:55:30.059Z,99291.55
2022-10-04T00:56:34.149Z,99296.54
2022-10-04T00:57:38.243Z,99296.31
2022-10-04T00:58:42.319Z,99297.77
2022-10-04T00:59:46.416Z,99299.63
2022-10-04T01:00:50.694Z,99299.11
2022-10-04T01:01:55.148Z,99293.77
2022-10-04T01:02:59.315Z,99303.22
2022-10-04T01:04:03.404Z,99295.69
2022-10-04T01:05:07.492Z,99290.73
2022-10-04T01:06:11.598Z,99294.75
2022-10-04T01:07:15.701Z,99293.02
2022-10-04T01:08:19.774Z,99285.28
2022-10-04T01:09:23.843Z,99291.67
2022-10-04T01:10:27.955Z,99289
2022-10-04T01:11:32.051Z,99288.11
2022-10-04T01:12:36.144Z,99289.86
2022-10-04T01:13:40.282Z,99288.11
2022-10-04T01:14:44.366Z,99290.86
2022-10-04T01:15:48.597Z,99287.26
2022-10-04T01:16:52.773Z,99282.8
2022-10-04T01:17:58.640Z,99291.89
2022-10-04T01:19:05.381Z,99290.97
2022-10-04T01:20:09.481Z,99287.77
2022-10-04T01:21:13.594Z,99287.36
2022-10-04T01:22:17.688Z,99285.05
2022-10-04T01:23:21.785Z,99290.11
2022-10-04T01:24:25.884Z,99289.4
2022-10-04T01:25:30.022Z,99289.3
2022-10-04T01:26:34.122Z,99291.55
2022-10-04T01:27:38.267Z,99286.63
2022-10-04T01:28:42.360Z,99293
2022-10-04T01:29:46.445Z,99285.8
2022-10-04T01:30:50.550Z,99284.77
2022-10-04T01:31:54.780Z,99290.86
2022-10-04T01:32:59.061Z,99284.57
2022-10-04T01:34:03.161Z,99281.38
2022-10-04T01:35:07.272Z,99280.45
2022-10-04T01:36:11.370Z,99277.03
2022-10-04T01:37:15.472Z,99281.38
2022-10-04T01:38:19.564Z,99277.45
2022-10-04T01:39:23.664Z,99288.37
2022-10-04T01:40:27.746Z,99284.36
2022-10-04T01:41:31.840Z,99287.44
2022-10-04T01:42:35.968Z,99288.78
2022-10-04T01:43:40.062Z,99278.7
2022-10-04T01:44:44.167Z,99283.54
2022-10-04T01:45:48.274Z,99287.95
2022-10-04T01:46:52.563Z,99285.28
2022-10-04T01:47:56.813Z,99289.3
2022-10-04T01:49:00.931Z,99282.31
2022-10-04T01:50:07.270Z,99285.8
2022-10-04T01:51:15.604Z,99284.47
2022-10-04T01:52:19.722Z,99287.14
2022-10-04T01:53:23.812Z,99291.97
2022-10-04T01:54:27.919Z,99288.88
2022-10-04T01:55:32.004Z,99291.92
2022-10-04T01:56:36.110Z,99291.92
2022-10-04T01:57:40.282Z,99293.48
2022-10-04T01:58:44.380Z,99299.17
2022-10-04T01:59:48.466Z,99294.34
2022-10-04T02:00:52.706Z,99288.02
2022-10-04T02:01:56.935Z,99290.4
2022-10-04T02:03:01.041Z,99295.27
2022-10-04T02:04:05.125Z,99293.47
2022-10-04T02:05:09.360Z,99295.75
2022-10-04T02:06:13.469Z,99295.86
2022-10-04T02:07:17.591Z,99295.03
2022-10-04T02:08:21.708Z,99297.7
2022-10-04T02:09:25.898Z,99299.53
2022-10-04T02:10:30.003Z,99288.84
2022-10-04T02:11:34.101Z,99295.93
2022-10-04T02:12:38.204Z,99293.25
2022-10-04T02:13:42.299Z,99292.84
2022-10-04T02:14:46.406Z,99286.27
2022-10-04T02:15:50.606Z,99296.86
2022-10-04T02:16:54.838Z,99283.26
2022-10-04T02:17:58.943Z,99275.12
2022-10-04T02:19:03.070Z,99287.61
2022-10-04T02:20:07.150Z,99289.45
2022-10-04T02:21:11.237Z,99287.27
2022-10-04T02:22:15.331Z,99274.83
2022-10-04T02:23:19.450Z,99282.33
2022-10-04T02:24:23.539Z,99281.92
2022-10-04T02:25:27.645Z,99287.78
2022-10-04T02:26:31.753Z,99286.97
2022-10-04T02:27:35.875Z,99291.91
2022-10-04T02:28:39.984Z,99277.9
2022-10-04T02:29:44.085Z,99286.4
2022-10-04T02:30:48.170Z,99282.55
2022-10-04T02:31:52.283Z,99287.05
2022-10-04T02:32:56.394Z,99277.33
2022-10-04T02:34:00.630Z,99284.88
2022-10-04T02:35:04.720Z,99286.22
2022-10-04T02:36:08.804Z,99293.42
2022-10-04T02:37:13.119Z,99298.66
2022-10-04T02:38:17.239Z,99284.58
2022-10-04T02:39:21.372Z,99287.66
2022-10-04T02:40:25.447Z,99284.88
2022-10-04T02:41:29.522Z,99286.81
2022-10-04T02:42:33.613Z,99288.14
2022-10-04T02:43:37.715Z,99286.73
2022-10-04T02:44:41.795Z,99288.66
2022-10-04T02:45:45.903Z,99284.58
2022-10-04T02:46:50.172Z,99286.4
2022-10-04T02:47:54.374Z,99283.91
2022-10-04T02:48:58.497Z,99281.98
2022-10-04T02:50:02.601Z,99279.59
2022-10-04T02:51:06.701Z,99279.59
2022-10-04T02:52:10.803Z,99287.69
2022-10-04T02:53:14.908Z,99294.89
2022-10-04T02:54:19.021Z,99301.2
2022-10-04T02:55:23.137Z,99294.94
2022-10-04T02:56:27.227Z,99299.53
2022-10-04T02:57:31.319Z,99292.03
2022-10-04T02:58:35.440Z,99298.02
2022-10-04T02:59:39.548Z,99296.16
2022-10-04T03:00:43.762Z,99287.92
2022-10-04T03:01:48.090Z,99287.09
2022-10-04T03:02:52.303Z,99294.94
2022-10-04T03:03:56.390Z,99296.16
2022-10-04T03:05:00.513Z,99295.34
2022-10-04T03:06:04.630Z,99297.02
2022-10-04T03:07:08.728Z,99291.28
2022-10-04T03:08:12.850Z,99300.45
2022-10-04T03:09:16.962Z,99291.55
2022-10-04T03:10:21.064Z,99294.95
2022-10-04T03:11:25.182Z,99298.06
2022-10-04T03:12:29.268Z,99295.86
2022-10-04T03:13:33.398Z,99295.02
2022-10-04T03:14:37.508Z,99301.45
2022-10-04T03:15:41.682Z,99291.72
2022-10-04T03:16:45.860Z,99289.5
2022-10-04T03:17:49.936Z,99294.78
2022-10-04T03:18:54.069Z,99295
2022-10-04T03:19:58.144Z,99292.39
2022-10-04T03:21:02.260Z,99297.05
2022-10-04T03:22:06.355Z,99300.73
2022-10-04T03:23:10.459Z,99291.84
2022-10-04T03:24:14.553Z,99293.03
2022-10-04T03:25:18.661Z,99300.73
2022-10-04T03:26:22.744Z,99290.5
2022-10-04T03:27:26.869Z,99299.68
2022-10-04T03:28:31.139Z,99288.01
2022-10-04T03:29:35.449Z,99287.83
2022-10-04T03:30:39.563Z,99290.38
2022-10-04T03:31:44.321Z,99295.67
2022-10-04T03:32:49.075Z,99292.17
2022-10-04T03:33:53.180Z,99284.83
2022-10-04T03:34:57.283Z,99287.34
2022-10-04T03:36:01.380Z,99288.06
2022-10-04T03:37:05.475Z,99289.73
2022-10-04T03:38:09.568Z,99294.16
2022-10-04T03:39:13.642Z,99288.32
2022-10-04T03:40:17.717Z,99293.86
2022-10-04T03:41:21.835Z,99297.88
2022-10-04T03:42:25.940Z,99290.37
2022-10-04T03:43:30.054Z,99295.09
2022-10-04T03:44:34.116Z,99292.19
2022-10-04T03:45:38.263Z,99278.77
2022-10-04T03:46:42.419Z,99294.64
2022-10-04T03:47:46.515Z,99288.47
2022-10-04T03:48:50.653Z,99291.52
2022-10-04T03:49:54.755Z,99294.3
2022-10-04T03:50:58.864Z,99295.72
2022-10-04T03:52:02.988Z,99292
2022-10-04T03:53:07.107Z,99288.46
2022-10-04T03:54:11.257Z,99292.18
2022-10-04T03:55:15.374Z,99294.11
2022-10-04T03:56:19.464Z,99297.3
2022-10-04T03:57:23.549Z,99298.34
2022-10-04T03:58:27.642Z,99297.78
2022-10-04T03:59:31.759Z,99301.09
2022-10-04T04:00:35.873Z,99302.34
2022-10-04T04:01:40.486Z,99304.2
2022-10-04T04:02:47.318Z,99293.2
2022-10-04T04:03:51.588Z,99299.44
2022-10-04T04:04:55.693Z,99305.23
2022-10-04T04:05:59.805Z,99304.12
2022-10-04T04:07:03.925Z,99303.38
2022-10-04T04:08:08.020Z,99299.13
2022-10-04T04:09:12.149Z,99304.27
2022-10-04T04:10:17.930Z,99306.69
2022-10-04T04:11:22.033Z,99299.48
2022-10-04T04:12:26.159Z,99307.39
2022-10-04T04:13:30.276Z,99306.47
2022-10-04T04:14:34.443Z,99310.3
2022-10-04T04:15:38.523Z,99299.25
2022-10-04T04:16:42.691Z,99309.13
2022-10-04T04:17:47.256Z,99310.77
2022-10-04T04:18:51.359Z,99309.2
2022-10-04T04:19:55.485Z,99311.77
2022-10-04T04:21:01.291Z,99310.66
2022-10-04T04:22:05.399Z,99305.27
2022-10-04T04:23:09.507Z,99299.83
2022-10-04T04:24:13.593Z,99309.97
2022-10-04T04:25:17.678Z,99316.7
2022-10-04T04:26:21.774Z,99314.58
2022-10-04T04:27:30.069Z,99316.08
2022-10-04T04:28:34.291Z,99316.58
2022-10-04T04:29:38.577Z,99310.81
2022-10-04T04:30:42.676Z,99324.34
2022-10-04T04:31:47.197Z,99319.65
2022-10-04T04:32:51.395Z,99320.42
2022-10-04T04:33:55.491Z,99322.65
2022-10-04T04:34:59.585Z,99323.69
2022-10-04T04:36:03.686Z,99331
2022-10-04T04:37:07.772Z,99323.66
2022-10-04T04:38:11.891Z,99322.67
2022-10-04T04:39:16.024Z,99332.03
2022-10-04T04:40:20.127Z,99329.84
2022-10-04T04:41:24.228Z,99335.08
2022-10-04T04:42:28.331Z,99331.53
2022-10-04T04:43:32.445Z,99327.65
2022-10-04T04:44:36.569Z,99344.06
2022-10-04T04:45:40.784Z,99339.41
2022-10-04T04:46:45.222Z,99329.59
2022-10-04T04:47:49.444Z,99332.86
2022-10-04T04:48:53.605Z,99338.31
2022-10-04T04:49:57.736Z,99337.98
2022-10-04T04:51:01.874Z,99342.51
2022-10-04T04:52:06.016Z,99343.1
2022-10-04T04:53:10.150Z,99335.13
2022-10-04T04:54:14.265Z,99340.72
2022-10-04T04:55:18.379Z,99342
2022-10-04T04:56:22.485Z,99334.27
2022-10-04T04:57:26.588Z,99341.8
2022-10-04T04:58:30.674Z,99344.19
2022-10-04T04:59:34.771Z,99348.69
2022-10-04T05:00:38.981Z,99350.95
2022-10-04T05:01:44.065Z,99352.29
2022-10-04T05:02:48.903Z,99349.31
2022-10-04T05:03:53.052Z,99349.9
2022-10-04T05:04:57.167Z,99353.91
2022-10-04T05:06:01.290Z,99352.52
2022-10-04T05:07:05.407Z,99352.04
2022-10-04T05:08:09.548Z,99354.5
2022-10-04T05:09:13.670Z,99359.84
2022-10-04T05:10:17.771Z,99356.3
2022-10-04T05:11:21.926Z,99359.49
2022-10-04T05:12:25.999Z,99360.01
2022-10-04T05:13:30.094Z,99369.08
2022-10-04T05:14:34.180Z,99367.85
2022-10-04T05:15:38.286Z,99370.08
2022-10-04T05:16:42.590Z,99362.12
2022-10-04T05:17:46.855Z,99371.94
2022-10-04T05:18:50.957Z,99364.61
2022-10-04T05:19:55.055Z,99367.39
2022-10-04T05:20:59.170Z,99373.56
2022-10-04T05:22:03.286Z,99375.89
2022-10-04T05:23:07.404Z,99386.36
2022-10-04T05:24:11.795Z,99385.95
2022-10-04T05:25:15.889Z,99384.36
2022-10-04T05:26:19.997Z,99384.77
2022-10-04T05:27:24.143Z,99377.16
2022-10-04T05:28:28.488Z,99388.85
2022-10-04T05:29:32.751Z,99381.47
2022-10-04T05:30:36.845Z,99375.59
2022-10-04T05:31:41.436Z,99389.59
2022-10-04T05:32:46.078Z,99388.27
2022-10-04T05:33:50.200Z,99381.63
2022-10-04T05:34:54.305Z,99386.23
2022-10-04T05:35:58.411Z,99386.23
2022-10-04T05:37:02.525Z,99390.52
2022-10-04T05:38:06.651Z,99391.94
2022-10-04T05:39:10.745Z,99396.64
2022-10-04T05:40:14.809Z,99389.49
2022-10-04T05:41:18.947Z,99395.92
2022-10-04T05:42:23.094Z,99394.36
2022-10-04T05:43:27.220Z,99390.47
2022-10-04T05:44:31.302Z,99397.95
2022-10-04T05:45:35.533Z,99391.5
2022-10-04T05:46:44.985Z,99398.95
2022-10-04T05:47:49.126Z,99398.61
2022-10-04T05:48:53.227Z,99402.21
2022-10-04T05:49:57.301Z,99405.92
2022-10-04T05:51:01.399Z,99405.34
2022-10-04T05:52:05.499Z,99403.59
2022-10-04T05:53:09.619Z,99400.17
2022-10-04T05:54:13.744Z,99405.63
2022-10-04T05:55:17.860Z,99411.03
2022-10-04T05:56:21.958Z,99406.97
2022-10-04T05:57:26.054Z,99408.88
2022-10-04T05:58:30.143Z,99412.88
2022-10-04T05:59:34.269Z,99411.95
2022-10-04T06:00:38.374Z,99417.78
2022-10-04T06:01:43.387Z,99416.03
2022-10-04T06:02:48.429Z,99411.56
2022-10-04T06:03:52.656Z,99421.08
2022-10-04T06:04:56.824Z,99418.3
2022-10-04T06:06:00.931Z,99415.91
2022-10-04T06:07:05.020Z,99426.01
2022-10-04T06:08:09.135Z,99426.7
2022-10-04T06:09:13.229Z,99422.69
2022-10-04T06:10:17.366Z,99430.09
2022-10-04T06:11:21.534Z,99428.7
2022-10-04T06:12:25.652Z,99427.3
2022-10-04T06:13:29.746Z,99426.27
2022-10-04T06:14:33.853Z,99421.84
2022-10-04T06:15:37.944Z,99433.88
2022-10-04T06:16:42.236Z,99433.8
2022-10-04T06:17:46.575Z,99436.24
2022-10-04T06:18:50.658Z,99439.69
2022-10-04T06:19:54.765Z,99444.63
2022-10-04T06:20:58.903Z,99436.89
2022-10-04T06:22:03.024Z,99441.44
2022-10-04T06:23:07.169Z,99444.52
2022-10-04T06:24:11.255Z,99446.24
2022-10-04T06:25:15.360Z,99448.34
2022-10-04T06:26:19.499Z,99441.89
2022-10-04T06:27:23.601Z,99443.85
2022-10-04T06:28:27.861Z,99448.62
2022-10-04T06:29:32.124Z,99451.53
2022-10-04T06:30:36.340Z,99447.94
2022-10-04T06:31:40.827Z,99439.91
2022-10-04T06:32:45.495Z,99448.75
2022-10-04T06:33:49.601Z,99455.07
2022-10-04T06:34:53.682Z,99450.55
2022-10-04T06:35:57.763Z,99446.41
2022-10-04T06:37:01.913Z,99453.09
2022-10-04T06:38:06.012Z,99453.27
2022-10-04T06:39:10.103Z,99456.34
2022-10-04T06:40:14.201Z,99450.59
2022-10-04T06:41:18.274Z,99460.77
2022-10-04T06:42:22.401Z,99456.76
2022-10-04T06:43:26.474Z,99465.7
2022-10-04T06:44:30.581Z,99460.87
2022-10-04T06:45:34.686Z,99462.72
2022-10-04T06:46:38.969Z,99455.12
2022-10-04T06:47:43.085Z,99464.13
2022-10-04T06:48:47.205Z,99460.5
2022-10-04T06:49:51.309Z,99470.13
2022-10-04T06:50:55.422Z,99460.11
2022-10-04T06:51:59.529Z,99461.69
2022-10-04T06:53:03.651Z,99466.97
2022-10-04T06:54:07.728Z,99464.19
2022-10-04T06:55:11.851Z,99455.64
2022-10-04T06:56:15.947Z,99464.23
2022-10-04T06:57:20.064Z,99470.09
2022-10-04T06:58:24.207Z,99470.81
2022-10-04T06:59:28.316Z,99473.08
2022-10-04T07:00:32.437Z,99464.58
2022-10-04T07:01:36.687Z,99474.82
2022-10-04T07:02:41.105Z,99472.25
2022-10-04T07:03:51.654Z,99474
2022-10-04T07:05:11.409Z,99471.43
2022-10-04T07:06:15.578Z,99464.86
2022-10-04T07:07:19.709Z,99468.19
2022-10-04T07:08:23.845Z,99476.54
2022-10-04T07:09:27.980Z,99486.38
2022-10-04T07:10:32.159Z,99485.48
2022-10-04T07:11:36.320Z,99488.81
2022-10-04T07:12:40.464Z,99493.05
2022-10-04T07:13:44.605Z,99499.9
2022-10-04T07:14:48.705Z,99501.41
2022-10-04T07:15:52.990Z,99502.1
2022-10-04T07:16:57.263Z,99502.78
2022-10-04T07:18:01.380Z,99505.36
2022-10-04T07:19:05.503Z,99509.19
2022-10-04T07:20:09.589Z,99505.87
2022-10-04T07:21:13.714Z,99506.52
2022-10-04T07:22:17.836Z,99507.8
2022-10-04T07:23:28.328Z,99518.2
2022-10-04T07:24:32.681Z,99513.3
2022-10-04T07:25:36.790Z,99526.46
2022-10-04T07:26:40.948Z,99510.53
2022-10-04T07:27:45.060Z,99513.89
2022-10-04T07:28:49.197Z,99518.89
2022-10-04T07:29:53.330Z,99517.66
2022-10-04T07:30:57.598Z,99515.46
2022-10-04T07:32:01.822Z,99507.96
2022-10-04T07:33:05.933Z,99513.61
2022-10-04T07:34:10.024Z,99517.62
2022-10-04T07:35:14.156Z,99514.95
2022-10-04T07:36:22.680Z,99517.45
2022-10-04T07:37:26.763Z,99518.78
2022-10-04T07:38:30.927Z,99514.13
2022-10-04T07:39:35.046Z,99514.2
2022-10-04T07:40:39.149Z,99524.58
2022-10-04T07:41:43.990Z,99523.99
2022-10-04T07:42:48.882Z,99528.17
2022-10-04T07:43:53.014Z,99530.34
2022-10-04T07:44:57.131Z,99524.44
2022-10-04T07:46:01.318Z,99527.36
2022-10-04T07:47:05.571Z,99529.17
2022-10-04T07:48:09.725Z,99532.91
2022-10-04T07:49:13.820Z,99530.34
2022-10-04T07:50:18.048Z,99531.77
2022-10-04T07:51:22.131Z,99528.89
2022-10-04T07:52:26.256Z,99532.08
2022-10-04T07:53:30.360Z,99530.88
2022-10-04T07:54:34.465Z,99527.87
2022-10-04T07:55:38.611Z,99529.86
2022-10-04T07:56:42.738Z,99540.03
2022-10-04T07:57:46.854Z,99530.09
2022-10-04T07:58:50.975Z,99527.32
2022-10-04T07:59:55.113Z,99535.13
2022-10-04T08:00:59.268Z,99544.93
2022-10-04T08:02:03.555Z,99537.31
2022-10-04T08:03:07.921Z,99544.17
2022-10-04T08:04:12.191Z,99544.37
2022-10-04T08:05:16.318Z,99533.05
2022-10-04T08:06:20.430Z,99549.04
2022-10-04T08:07:24.528Z,99545.89
2022-10-04T08:08:28.721Z,99549.63
2022-10-04T08:09:32.835Z,99550.03
2022-10-04T08:10:36.932Z,99549.63
2022-10-04T08:11:41.621Z,99546.71
2022-10-04T08:12:46.368Z,99554.97
2022-10-04T08:13:50.480Z,99552.81
2022-10-04T08:14:54.580Z,99559.08
2022-10-04T08:15:58.813Z,99558.56
2022-10-04T08:17:03.098Z,99563.22
2022-10-04T08:18:07.197Z,99563.33
2022-10-04T08:19:11.290Z,99570.59
2022-10-04T08:20:15.405Z,99567.92
2022-10-04T08:21:19.522Z,99564.32
2022-10-04T08:22:23.695Z,99566.92
2022-10-04T08:23:27.790Z,99569.25
2022-10-04T08:24:31.910Z,99563.84
2022-10-04T08:25:36.044Z,99565.63
2022-10-04T08:26:40.456Z,99569.36
2022-10-04T08:27:45.174Z,99573.87
2022-10-04T08:28:49.296Z,99572.95
2022-10-04T08:29:53.396Z,99572.44
2022-10-04T08:30:57.697Z,99565.11
2022-10-04T08:32:06.220Z,99576.31
2022-10-04T08:33:10.377Z,99579.3
2022-10-04T08:34:14.469Z,99581.04
2022-10-04T08:35:18.565Z,99585.45
2022-10-04T08:36:22.689Z,99584.05
2022-10-04T08:37:26.797Z,99579.43
2022-10-04T08:38:30.909Z,99578.44
2022-10-04T08:39:36.457Z,99577.03
2022-10-04T08:40:40.680Z,99587.95
2022-10-04T08:41:44.895Z,99581.14
2022-10-04T08:42:49.008Z,99582.55
2022-10-04T08:43:53.126Z,99581.66
2022-10-04T08:44:57.425Z,99580.63
2022-10-04T08:46:01.726Z,99586.14
2022-10-04T08:47:05.926Z,99586.55
2022-10-04T08:48:10.018Z,99584.33
2022-10-04T08:49:14.129Z,99578.54
2022-10-04T08:50:18.264Z,99583.88
2022-10-04T08:51:22.371Z,99592.41
2022-10-04T08:52:26.485Z,99591.25
2022-10-04T08:53:30.582Z,99588.98
2022-10-04T08:54:34.750Z,99587.66
2022-10-04T08:55:38.867Z,99584.16
2022-10-04T08:56:43.634Z,99582.31
2022-10-04T08:57:48.509Z,99593.68
2022-10-04T08:58:52.621Z,99597.24
2022-10-04T08:59:56.802Z,99595.02
2022-10-04T09:01:01.132Z,99593.85
2022-10-04T09:02:05.421Z,99597.86
2022-10-04T09:03:09.675Z,99602.34
2022-10-04T09:04:13.843Z,99595.67
2022-10-04T09:05:18.050Z,99595.94
2022-10-04T09:06:22.180Z,99599.61
2022-10-04T09:07:26.283Z,99600.13
2022-10-04T09:08:30.373Z,99602.86
2022-10-04T09:09:34.449Z,99600.7
2022-10-04T09:10:38.612Z,99597.28
2022-10-04T09:11:42.695Z,99598.2
2022-10-04T09:12:46.778Z,99603.78
2022-10-04T09:13:50.866Z,99609.78
2022-10-04T09:14:54.980Z,99602.86
2022-10-04T09:15:59.218Z,99614.98
2022-10-04T09:17:03.462Z,99608.45
2022-10-04T09:18:07.534Z,99606.53
2022-10-04T09:19:11.699Z,99614.06
2022-10-04T09:20:39.567Z,99612.72
2022-10-04T09:21:44.329Z,99609.71
2022-10-04T09:22:48.469Z,99617.31
2022-10-04T09:23:52.587Z,99620.98
2022-10-04T09:24:56.694Z,99614.16
2022-10-04T09:26:00.995Z,99615.73
2022-10-04T09:27:05.116Z,99618.75
2022-10-04T09:28:09.336Z,99625.47
2022-10-04T09:29:13.583Z,99620.64
2022-10-04T09:30:17.680Z,99624.14
2022-10-04T09:31:21.898Z,99620.4
2022-10-04T09:32:26.134Z,99624.99
2022-10-04T09:33:30.197Z,99627.73
2022-10-04T09:34:38.423Z,99619.98
2022-10-04T09:35:42.517Z,99629.41
2022-10-04T09:36:47.159Z,99624.81
2022-10-04T09:37:51.324Z,99628
2022-10-04T09:39:29.308Z,99624.14
2022-10-04T09:40:34.500Z,99626.77
2022-10-04T09:41:38.594Z,99629.23
2022-10-04T09:42:42.695Z,99627.66
2022-10-04T09:43:46.805Z,99626.09
2022-10-04T09:44:50.944Z,99628.83
2022-10-04T09:45:55.108Z,99629.06
2022-10-04T09:46:59.429Z,99633.08
2022-10-04T09:48:03.648Z,99633.45
2022-10-04T09:49:07.774Z,99627.35
2022-10-04T09:50:11.874Z,99624.67
2022-10-04T09:51:15.961Z,99633.08
2022-10-04T09:52:20.087Z,99633.17
2022-10-04T09:53:24.215Z,99631.5
2022-10-04T09:54:28.318Z,99636.36
2022-10-04T09:55:32.403Z,99634.09
2022-10-04T09:56:36.524Z,99627.69
2022-10-04T09:57:40.641Z,99636.19
2022-10-04T09:58:44.736Z,99627.11
2022-10-04T09:59:48.911Z,99634.95
2022-10-04T10:00:52.998Z,99635.02
2022-10-04T10:01:57.365Z,99632.8
2022-10-04T10:03:01.922Z,99640.54
2022-10-04T10:04:06.211Z,99637.77
2022-10-04T10:05:10.368Z,99640.02
2022-10-04T10:06:14.451Z,99634.95
2022-10-04T10:07:18.556Z,99639.61
2022-10-04T10:08:28.593Z,99638.11
2022-10-04T10:09:32.752Z,99630.75
2022-10-04T10:10:36.951Z,99638.62
2022-10-04T10:11:41.989Z,99634
2022-10-04T10:12:46.561Z,99635.68
2022-10-04T10:13:50.669Z,99641.02
2022-10-04T10:14:54.762Z,99632.08
2022-10-04T10:15:59.017Z,99637.7
2022-10-04T10:17:03.281Z,99633.93
2022-10-04T10:18:07.385Z,99639.83
2022-10-04T10:19:11.480Z,99645.34
2022-10-04T10:20:15.605Z,99640.61
2022-10-04T10:21:19.740Z,99639.62
2022-10-04T10:22:23.846Z,99648.05
2022-10-04T10:23:27.940Z,99644.2
2022-10-04T10:24:32.083Z,99649.72
2022-10-04T10:25:36.179Z,99643.86
2022-10-04T10:26:40.573Z,99651.7
2022-10-04T10:27:45.307Z,99645.61
2022-10-04T10:28:49.424Z,99657.98
2022-10-04T10:29:53.559Z,99647.8
2022-10-04T10:31:00.758Z,99659.48
2022-10-04T10:32:04.973Z,99655.06
2022-10-04T10:33:09.072Z,99654.38
2022-10-04T10:34:13.191Z,99655.78
2022-10-04T10:35:17.315Z,99654.89
2022-10-04T10:36:21.432Z,99659.14
2022-10-04T10:37:25.552Z,99658.56
2022-10-04T10:38:29.650Z,99657.2
2022-10-04T10:39:33.763Z,99661.11
2022-10-04T10:40:37.881Z,99665.02
2022-10-04T10:41:41.975Z,99663.61
2022-10-04T10:42:46.083Z,99655.77
2022-10-04T10:43:50.165Z,99665.39
2022-10-04T10:44:54.270Z,99669.73
2022-10-04T10:45:58.358Z,99663.63
2022-10-04T10:47:02.697Z,99657.4
2022-10-04T10:48:06.954Z,99659.9
2022-10-04T10:49:11.041Z,99655.65
2022-10-04T10:50:15.126Z,99658.32
2022-10-04T10:51:19.259Z,99663.08
2022-10-04T10:52:23.381Z,99662.41
2022-10-04T10:53:27.499Z,99664.39
2022-10-04T10:54:31.655Z,99660.04
2022-10-04T10:55:35.779Z,99664.8
2022-10-04T10:56:39.886Z,99667.75
2022-10-04T10:57:43.989Z,99669.59
2022-10-04T10:58:48.108Z,99664.66
2022-10-04T10:59:52.267Z,99660.14
2022-10-04T11:00:56.378Z,99659.39
2022-10-04T11:02:00.683Z,99667.06
2022-10-04T11:03:16.521Z,99663.98
2022-10-04T11:04:28.556Z,99666.72
2022-10-04T11:05:32.669Z,99662.64
2022-10-04T11:06:36.785Z,99664.05
2022-10-04T11:07:40.932Z,99655.38
2022-10-04T11:08:45.071Z,99661.2
2022-10-04T11:09:49.202Z,99664.77
2022-10-04T11:10:53.305Z,99660.28
2022-10-04T11:11:57.400Z,99662.2
2022-10-04T11:13:01.504Z,99666.79
2022-10-04T11:14:05.620Z,99660.45
2022-10-04T11:15:09.814Z,99665.52
2022-10-04T11:16:14.038Z,99656.45
2022-10-04T11:17:18.341Z,99660.35
2022-10-04T11:18:22.456Z,99662.88
2022-10-04T11:19:26.569Z,99661.96
2022-10-04T11:20:30.687Z,99668.91
2022-10-04T11:21:34.791Z,99665.63
2022-10-04T11:22:39.611Z,99666
2022-10-04T11:23:43.723Z,99666.16
2022-10-04T11:24:47.807Z,99670.73
2022-10-04T11:25:51.922Z,99662.06
2022-10-04T11:26:56.030Z,99667.38
2022-10-04T11:28:00.339Z,99669.3
2022-10-04T11:29:04.581Z,99664.33
2022-10-04T11:30:08.737Z,99663.31
2022-10-04T11:31:13.139Z,99665.23
2022-10-04T11:32:17.355Z,99672.8
2022-10-04T11:33:21.460Z,99677.42
2022-10-04T11:34:25.560Z,99677.87
2022-10-04T11:35:29.689Z,99672.34
2022-10-04T11:36:33.855Z,99669.02
2022-10-04T11:37:37.950Z,99673.47
2022-10-04T11:38:42.032Z,99676.55
2022-10-04T11:39:46.127Z,99684.75
2022-10-04T11:40:50.236Z,99686.98
2022-10-04T11:41:54.371Z,99683.14
2022-10-04T11:42:58.478Z,99686.33
2022-10-04T11:44:02.573Z,99693
2022-10-04T11:45:06.695Z,99686.08
2022-10-04T11:46:12.172Z,99689.75
2022-10-04T11:47:16.530Z,99681.7
2022-10-04T11:48:20.648Z,99685.69
2022-10-04T11:49:24.792Z,99687.95
2022-10-04T11:50:28.901Z,99685.03
2022-10-04T11:51:33.048Z,99685.34
2022-10-04T11:52:37.218Z,99672.59
2022-10-04T11:53:41.360Z,99679.95
2022-10-04T11:54:45.460Z,99681.39
2022-10-04T11:55:49.575Z,99681.39
2022-10-04T11:56:53.690Z,99674.3
2022-10-04T11:57:57.879Z,99681.39
2022-10-04T11:59:02.021Z,99680.87
2022-10-04T12:00:06.125Z,99677.14
2022-10-04T12:01:10.286Z,99675.63
2022-10-04T12:02:14.365Z,99668.95
2022-10-04T12:03:18.614Z,99671.52
2022-10-04T12:04:23.009Z,99684.03
2022-10-04T12:05:27.233Z,99671.02
2022-10-04T12:06:31.344Z,99680.47
2022-10-04T12:07:35.457Z,99685.52
2022-10-04T12:08:39.567Z,99679.27
2022-10-04T12:09:43.682Z,99681.27
2022-10-04T12:10:47.775Z,99684.45
2022-10-04T12:11:51.879Z,99686.78
2022-10-04T12:12:55.980Z,99690.52
2022-10-04T12:14:00.098Z,99685.27
2022-10-04T12:15:04.243Z,99690.66
2022-10-04T12:16:08.581Z,99694.16
2022-10-04T12:17:12.847Z,99683.73
2022-10-04T12:18:17.095Z,99691.75
2022-10-04T12:19:21.247Z,99693.91
2022-10-04T12:20:25.354Z,99693.58
2022-10-04T12:21:29.455Z,99695.29
2022-10-04T12:22:33.540Z,99699.84
2022-10-04T12:23:37.676Z,99690.95
2022-10-04T12:24:41.818Z,99692.39
2022-10-04T12:25:45.944Z,99691.1
2022-10-04T12:26:50.061Z,99694.64
2022-10-04T12:27:54.301Z,99693.58
2022-10-04T12:28:58.521Z,99690.45
2022-10-04T12:30:02.661Z,99700.91
2022-10-04T12:31:07.002Z,99694.39
2022-10-04T12:32:11.285Z,99697.42
2022-10-04T12:33:15.403Z,99692.23
2022-10-04T12:34:19.499Z,99700.28
2022-10-04T12:35:23.636Z,99695.48
2022-10-04T12:36:27.758Z,99701
2022-10-04T12:37:31.859Z,99695.92
2022-10-04T12:38:35.985Z,99699.48
2022-10-04T12:39:40.091Z,99696.98